MTJ200 EHRD-EGCC
Flight info
| Callsign | MTJ200 |
|---|---|
| Flight time | N/A |
| Altitude | 34000 |
| Route | ABNED L980 LAM UN57 WELIN T420 TNT |
| Aircraft | CL60/M-SBDE1E2E3FGHIJ1J4J5J7M3RWXYZ/LB1V1D1 |
Departure
| Time | 2026-05-06 12:23 |
|---|---|
| Airport | Rotterdam The Hague Airport (EHRD) |
Arrival
| Time | N/A |
|---|---|
| Airport | Manchester Airport (EGCC) |
| Time | Latitude | Longitude | Altitude | Speed | Heading |
|---|---|---|---|---|---|
| 2026-05-06 12:03 | 51.94859 | 4.43898 | -8 ft | 0 kts | 324° |
| 2026-05-06 12:18 | 51.94896 | 4.43862 | -8 ft | 10 kts | 336° |
| 2026-05-06 12:19 | 51.94965 | 4.43804 | -7 ft | 12 kts | 330° |
| 2026-05-06 12:19 | 51.95039 | 4.43725 | -8 ft | 12 kts | 326° |
| 2026-05-06 12:19 | 51.95110 | 4.43653 | -8 ft | 13 kts | 325° |
| 2026-05-06 12:19 | 51.95194 | 4.43564 | -8 ft | 14 kts | 327° |
| 2026-05-06 12:20 | 51.95261 | 4.43468 | -6 ft | 11 kts | 271° |
| 2026-05-06 12:20 | 51.95224 | 4.43355 | -5 ft | 12 kts | 237° |
| 2026-05-06 12:20 | 51.95173 | 4.43229 | -4 ft | 14 kts | 237° |
| 2026-05-06 12:20 | 51.95125 | 4.43076 | -6 ft | 11 kts | 246° |
| 2026-05-06 12:21 | 51.95111 | 4.43016 | -8 ft | 0 kts | 257° |
| 2026-05-06 12:22 | 51.95111 | 4.43014 | -8 ft | 2 kts | 258° |
| 2026-05-06 12:22 | 51.95144 | 4.42912 | -8 ft | 15 kts | 326° |
| 2026-05-06 12:22 | 51.95232 | 4.42885 | -7 ft | 13 kts | 47° |
| 2026-05-06 12:23 | 51.95296 | 4.43048 | -6 ft | 41 kts | 56° |
| 2026-05-06 12:23 | 51.95672 | 4.43992 | 12 ft | 150 kts | 56° |
| 2026-05-06 12:23 | 51.96339 | 4.45642 | 506 ft | 197 kts | 55° |
| 2026-05-06 12:23 | 51.97118 | 4.47574 | 1303 ft | 215 kts | 55° |
| 2026-05-06 12:24 | 51.97871 | 4.49808 | 1955 ft | 247 kts | 64° |
| 2026-05-06 12:24 | 51.98623 | 4.52422 | 2621 ft | 253 kts | 54° |
| 2026-05-06 12:24 | 51.99898 | 4.54168 | 2948 ft | 242 kts | 21° |
| 2026-05-06 12:24 | 52.01557 | 4.54324 | 2996 ft | 248 kts | 346° |
| 2026-05-06 12:25 | 52.03065 | 4.52876 | 2991 ft | 258 kts | 319° |
| 2026-05-06 12:25 | 52.04055 | 4.50399 | 2994 ft | 262 kts | 291° |
| 2026-05-06 12:25 | 52.04195 | 4.47529 | 3195 ft | 270 kts | 261° |
| 2026-05-06 12:25 | 52.03443 | 4.44808 | 4298 ft | 271 kts | 233° |
| 2026-05-06 12:26 | 52.02057 | 4.42782 | 4816 ft | 271 kts | 216° |
| 2026-05-06 12:26 | 52.00505 | 4.40925 | 4876 ft | 281 kts | 217° |
| 2026-05-06 12:26 | 51.98920 | 4.39014 | 4876 ft | 281 kts | 217° |
| 2026-05-06 12:26 | 51.97344 | 4.36933 | 5319 ft | 306 kts | 228° |
| 2026-05-06 12:27 | 51.96329 | 4.34091 | 7054 ft | 294 kts | 253° |
| 2026-05-06 12:27 | 51.95927 | 4.30994 | 8674 ft | 286 kts | 264° |
| 2026-05-06 12:27 | 51.95671 | 4.27848 | 10035 ft | 289 kts | 264° |
| 2026-05-06 12:27 | 51.95399 | 4.24538 | 10741 ft | 314 kts | 263° |
| 2026-05-06 12:28 | 51.95096 | 4.20879 | 11362 ft | 339 kts | 263° |
| 2026-05-06 12:28 | 51.94772 | 4.17018 | 12273 ft | 351 kts | 263° |
| 2026-05-06 12:28 | 51.94442 | 4.13113 | 13318 ft | 357 kts | 263° |
| 2026-05-06 12:28 | 51.94102 | 4.09121 | 14373 ft | 361 kts | 263° |
| 2026-05-06 12:29 | 51.93728 | 4.05089 | 15363 ft | 366 kts | 262° |
| 2026-05-06 12:29 | 51.93337 | 4.01017 | 16302 ft | 372 kts | 262° |
| 2026-05-06 12:29 | 51.92936 | 3.96858 | 17175 ft | 378 kts | 262° |
| 2026-05-06 12:29 | 51.92532 | 3.92685 | 18012 ft | 383 kts | 262° |
| 2026-05-06 12:30 | 51.92114 | 3.88393 | 18845 ft | 387 kts | 262° |
| 2026-05-06 12:30 | 51.91699 | 3.84138 | 19630 ft | 391 kts | 262° |
| 2026-05-06 12:30 | 51.91271 | 3.79772 | 20419 ft | 394 kts | 262° |
| 2026-05-06 12:30 | 51.90843 | 3.75426 | 21141 ft | 398 kts | 261° |
| 2026-05-06 12:31 | 51.90402 | 3.70961 | 21825 ft | 402 kts | 261° |
| 2026-05-06 12:31 | 51.89961 | 3.66522 | 22471 ft | 405 kts | 261° |
| 2026-05-06 12:31 | 51.89508 | 3.61974 | 23099 ft | 409 kts | 261° |
| 2026-05-06 12:31 | 51.89053 | 3.57428 | 23710 ft | 413 kts | 261° |
| 2026-05-06 12:32 | 51.88598 | 3.52897 | 24305 ft | 416 kts | 261° |
| 2026-05-06 12:32 | 51.88128 | 3.48242 | 24867 ft | 420 kts | 261° |
| 2026-05-06 12:32 | 51.87657 | 3.43598 | 25411 ft | 423 kts | 261° |
| 2026-05-06 12:32 | 51.87180 | 3.38909 | 25940 ft | 426 kts | 261° |
| 2026-05-06 12:33 | 51.86689 | 3.34112 | 26474 ft | 428 kts | 260° |
| 2026-05-06 12:33 | 51.86199 | 3.29332 | 26942 ft | 432 kts | 260° |
| 2026-05-06 12:33 | 51.85703 | 3.24518 | 27400 ft | 434 kts | 260° |
| 2026-05-06 12:33 | 51.85200 | 3.19656 | 27838 ft | 437 kts | 260° |
| 2026-05-06 12:34 | 51.84774 | 3.14767 | 28249 ft | 440 kts | 263° |
| 2026-05-06 12:34 | 51.84454 | 3.09799 | 28649 ft | 442 kts | 263° |
| 2026-05-06 12:34 | 51.84133 | 3.04798 | 29019 ft | 445 kts | 263° |
| 2026-05-06 12:34 | 51.83812 | 2.99838 | 29361 ft | 447 kts | 263° |
| 2026-05-06 12:35 | 51.83483 | 2.94809 | 29688 ft | 449 kts | 263° |
| 2026-05-06 12:35 | 51.83152 | 2.89781 | 29992 ft | 451 kts | 263° |
| 2026-05-06 12:35 | 51.82818 | 2.84736 | 30277 ft | 453 kts | 263° |
| 2026-05-06 12:35 | 51.82485 | 2.79743 | 30555 ft | 454 kts | 263° |
| 2026-05-06 12:36 | 51.82142 | 2.74632 | 30869 ft | 455 kts | 263° |
| 2026-05-06 12:36 | 51.81799 | 2.69563 | 31212 ft | 453 kts | 263° |
| 2026-05-06 12:36 | 51.81455 | 2.64509 | 31543 ft | 452 kts | 263° |
| 2026-05-06 12:36 | 51.81108 | 2.59481 | 31857 ft | 452 kts | 263° |
| 2026-05-06 12:37 | 51.80761 | 2.54471 | 32149 ft | 451 kts | 263° |
| 2026-05-06 12:37 | 51.80407 | 2.49387 | 32446 ft | 451 kts | 263° |
| 2026-05-06 12:37 | 51.80056 | 2.44383 | 32725 ft | 451 kts | 263° |
| 2026-05-06 12:37 | 51.79705 | 2.39407 | 32997 ft | 450 kts | 263° |
| 2026-05-06 12:38 | 51.79349 | 2.34401 | 33262 ft | 450 kts | 263° |
| 2026-05-06 12:38 | 51.78989 | 2.29372 | 33523 ft | 450 kts | 263° |
| 2026-05-06 12:38 | 51.78633 | 2.24418 | 33780 ft | 449 kts | 263° |
| 2026-05-06 12:38 | 51.78298 | 2.19363 | 33925 ft | 452 kts | 264° |
| 2026-05-06 12:39 | 51.77709 | 2.09251 | 33944 ft | 461 kts | 264° |
| 2026-05-06 12:39 | 51.77094 | 1.98868 | 33946 ft | 468 kts | 264° |
| 2026-05-06 12:40 | 51.76464 | 1.88395 | 33935 ft | 472 kts | 264° |
| 2026-05-06 12:40 | 51.75821 | 1.77878 | 33942 ft | 473 kts | 264° |
| 2026-05-06 12:41 | 51.75170 | 1.67395 | 33942 ft | 473 kts | 264° |
| 2026-05-06 12:41 | 51.74506 | 1.56863 | 33937 ft | 472 kts | 264° |